createdAt,value
2024-05-09T00:02:00.496Z,12.60
2024-05-09T00:04:49.908Z,12.60
2024-05-09T00:07:39.448Z,12.60
2024-05-09T00:10:35.589Z,12.60
2024-05-09T00:13:27.372Z,12.60
2024-05-09T00:16:19.307Z,12.60
2024-05-09T00:19:08.638Z,12.60
2024-05-09T00:21:57.840Z,12.60
2024-05-09T00:24:46.778Z,12.60
2024-05-09T00:27:35.928Z,12.60
2024-05-09T00:30:33.173Z,12.60
2024-05-09T00:33:28.188Z,12.60
2024-05-09T00:36:17.833Z,12.60
2024-05-09T00:39:07.247Z,12.60
2024-05-09T00:41:56.195Z,12.60
2024-05-09T00:44:45.334Z,12.60
2024-05-09T00:47:34.813Z,12.70
2024-05-09T00:50:35.477Z,12.60
2024-05-09T00:53:27.299Z,12.70
2024-05-09T00:56:17.112Z,12.60
2024-05-09T00:59:06.564Z,12.60
2024-05-09T01:01:56.683Z,12.60
2024-05-09T01:04:46.001Z,12.60
2024-05-09T01:07:38.178Z,12.60
2024-05-09T01:10:34.515Z,12.60
2024-05-09T01:13:24.774Z,12.60
2024-05-09T01:16:15.387Z,12.60
2024-05-09T01:19:07.524Z,12.60
2024-05-09T01:21:56.869Z,12.60
2024-05-09T01:24:48.905Z,12.60
2024-05-09T01:27:38.052Z,12.60
2024-05-09T01:30:33.944Z,12.60
2024-05-09T01:33:26.096Z,12.60
2024-05-09T01:36:15.683Z,12.60
2024-05-09T01:39:04.998Z,12.70
2024-05-09T01:41:57.109Z,12.60
2024-05-09T01:44:47.083Z,12.60
2024-05-09T01:47:36.473Z,12.60
2024-05-09T01:50:37.006Z,12.60
2024-05-09T01:53:30.099Z,12.70
2024-05-09T01:56:19.718Z,12.70
2024-05-09T01:59:11.557Z,12.70
2024-05-09T02:02:01.380Z,12.70
2024-05-09T02:04:50.752Z,12.70
2024-05-09T02:07:39.956Z,12.60
2024-05-09T02:10:32.649Z,12.70
2024-05-09T02:13:22.887Z,12.60
2024-05-09T02:16:16.675Z,12.60
2024-05-09T02:19:06.489Z,12.60
2024-05-09T02:21:55.300Z,12.60
2024-05-09T02:24:44.780Z,12.60
2024-05-09T02:27:36.035Z,12.60
2024-05-09T02:30:35.129Z,12.60
2024-05-09T02:33:32.440Z,12.60
2024-05-09T02:36:22.739Z,12.60
2024-05-09T02:39:08.965Z,12.60
2024-05-09T02:41:57.956Z,12.60
2024-05-09T02:44:44.107Z,12.60
2024-05-09T02:47:33.182Z,12.60
2024-05-09T02:50:30.241Z,12.60
2024-05-09T02:53:26.214Z,12.60
2024-05-09T02:56:12.731Z,12.50
2024-05-09T02:59:02.021Z,12.50
2024-05-09T03:01:48.783Z,12.50
2024-05-09T03:04:38.061Z,12.50
2024-05-09T03:07:27.406Z,12.50
2024-05-09T03:10:22.349Z,12.60
2024-05-09T03:13:16.585Z,12.60
2024-05-09T03:16:03.115Z,12.60
2024-05-09T03:18:52.481Z,12.60
2024-05-09T03:21:40.327Z,12.60
2024-05-09T03:24:32.095Z,12.60
2024-05-09T03:27:21.197Z,12.60
2024-05-09T03:30:09.967Z,12.50
2024-05-09T03:33:01.868Z,12.50
2024-05-09T03:35:49.255Z,12.50
2024-05-09T03:38:42.825Z,12.50
2024-05-09T03:41:35.241Z,12.50
2024-05-09T03:44:24.490Z,12.60
2024-05-09T03:47:14.687Z,12.50
2024-05-09T03:50:01.441Z,12.50
2024-05-09T03:52:50.957Z,12.60
2024-05-09T03:55:37.682Z,12.60
2024-05-09T03:58:29.777Z,12.60
2024-05-09T04:01:16.296Z,12.60
2024-05-09T04:04:05.433Z,12.60
2024-05-09T04:06:51.736Z,12.60
2024-05-09T04:09:40.803Z,12.60
2024-05-09T04:12:30.126Z,12.60
2024-05-09T04:15:19.324Z,12.60
2024-05-09T04:18:08.765Z,12.60
2024-05-09T04:20:59.749Z,12.60
2024-05-09T04:23:49.162Z,12.60
2024-05-09T04:26:38.519Z,12.60
2024-05-09T04:29:24.964Z,12.60
2024-05-09T04:32:17.122Z,12.50
2024-05-09T04:35:04.836Z,12.60
2024-05-09T04:37:54.217Z,12.60
2024-05-09T04:40:40.688Z,12.60
2024-05-09T04:43:29.946Z,12.70
2024-05-09T04:46:16.388Z,12.70
2024-05-09T04:49:08.616Z,12.70
2024-05-09T04:51:55.307Z,12.70
2024-05-09T04:54:44.205Z,12.60
2024-05-09T04:57:30.851Z,12.50
2024-05-09T05:00:28.601Z,12.50
2024-05-09T05:03:22.235Z,12.50
2024-05-09T05:06:14.418Z,12.50
2024-05-09T05:09:00.987Z,12.40
2024-05-09T05:11:50.124Z,12.40
2024-05-09T05:14:36.542Z,12.40
2024-05-09T05:17:26.569Z,12.40
2024-05-09T05:20:17.866Z,12.40
2024-05-09T05:23:15.472Z,12.40
2024-05-09T05:26:02.437Z,12.40
2024-05-09T05:28:51.621Z,12.40
2024-05-09T05:31:41.414Z,12.40
2024-05-09T05:34:27.903Z,12.40
2024-05-09T05:37:16.861Z,12.40
2024-05-09T05:40:09.364Z,12.40
2024-05-09T05:43:01.054Z,12.40
2024-05-09T05:45:47.792Z,12.40
2024-05-09T05:48:36.901Z,12.60
2024-05-09T05:51:23.408Z,12.60
2024-05-09T05:54:12.788Z,12.80
2024-05-09T05:57:01.978Z,12.90
2024-05-09T05:59:51.184Z,12.90
2024-05-09T06:02:37.580Z,12.90
2024-05-09T06:05:27.723Z,13.00
2024-05-09T06:08:14.813Z,13.10
2024-05-09T06:11:03.859Z,13.20
2024-05-09T06:13:53.453Z,13.30
2024-05-09T06:16:42.742Z,13.30
2024-05-09T06:19:29.734Z,13.50
2024-05-09T06:22:18.768Z,13.60
2024-05-09T06:25:06.248Z,13.70
2024-05-09T06:27:55.823Z,13.80
2024-05-09T06:30:47.746Z,13.90
2024-05-09T06:33:37.061Z,13.90
2024-05-09T06:36:24.544Z,14.00
2024-05-09T06:39:13.393Z,14.10
2024-05-09T06:41:59.796Z,14.20
2024-05-09T06:44:49.366Z,14.40
2024-05-09T06:47:40.684Z,14.50
2024-05-09T06:50:36.847Z,14.70
2024-05-09T06:53:25.123Z,15.10
2024-05-09T06:56:14.457Z,15.40
2024-05-09T06:59:01.086Z,15.50
2024-05-09T07:01:50.597Z,15.70
2024-05-09T07:04:42.499Z,15.70
2024-05-09T07:07:29.108Z,15.50
2024-05-09T07:10:25.487Z,15.50
2024-05-09T07:13:21.300Z,15.50
2024-05-09T07:16:10.829Z,15.30
2024-05-09T07:18:57.904Z,15.40
2024-05-09T07:21:51.495Z,15.50
2024-05-09T07:24:38.334Z,15.70
2024-05-09T07:27:28.087Z,15.90
2024-05-09T07:30:22.849Z,16.10
2024-05-09T07:33:21.521Z,16.20
2024-05-09T07:36:09.765Z,16.50
2024-05-09T07:39:01.627Z,16.50
2024-05-09T07:41:48.359Z,16.70
2024-05-09T07:44:37.509Z,17.20
2024-05-09T07:48:56.497Z,17.40
2024-05-09T07:52:23.528Z,17.30
2024-05-09T07:53:46.421Z,18.50
2024-05-09T07:56:42.056Z,19.10
2024-05-09T07:59:28.410Z,18.80
2024-05-09T08:02:17.410Z,19.50
2024-05-09T08:05:06.456Z,19.70
2024-05-09T08:07:54.058Z,19.80
2024-05-09T08:10:43.385Z,19.30
2024-05-09T08:13:35.430Z,18.90
2024-05-09T08:16:22.462Z,19.40
2024-05-09T08:19:12.017Z,21.40
2024-05-09T08:22:07.357Z,23.70
2024-05-09T08:24:54.320Z,25.30
2024-05-09T08:27:43.814Z,26.80
2024-05-09T08:30:37.045Z,28.20
2024-05-09T08:33:27.403Z,28.30
2024-05-09T08:36:14.541Z,28.20
2024-05-09T08:39:03.875Z,28.70
2024-05-09T08:41:51.669Z,27.80
2024-05-09T08:44:40.962Z,26.40
2024-05-09T08:47:32.447Z,25.60
2024-05-09T08:50:32.030Z,25.10
2024-05-09T08:53:27.392Z,25.90
2024-05-09T08:56:17.783Z,28.00
2024-05-09T08:59:07.164Z,29.30
2024-05-09T09:01:57.393Z,30.80
2024-05-09T09:04:56.802Z,30.50
2024-05-09T09:07:48.863Z,28.50
2024-05-09T09:10:38.555Z,26.50
2024-05-09T09:13:25.033Z,24.80
2024-05-09T09:16:14.319Z,23.40
2024-05-09T09:19:00.961Z,22.10
2024-05-09T09:21:53.026Z,21.20
2024-05-09T09:24:40.395Z,20.80
2024-05-09T09:27:29.656Z,20.20
2024-05-09T09:30:30.775Z,20.00
2024-05-09T09:33:24.592Z,20.00
2024-05-09T09:36:13.875Z,19.80
2024-05-09T09:39:06.632Z,19.60
2024-05-09T09:41:57.588Z,19.50
2024-05-09T09:44:54.480Z,19.50
2024-05-09T09:47:48.222Z,19.50
2024-05-09T09:50:37.118Z,19.40
2024-05-09T09:53:26.518Z,19.40
2024-05-09T09:56:18.285Z,19.30
2024-05-09T09:59:08.601Z,19.20
2024-05-09T10:01:55.618Z,19.20
2024-05-09T10:04:45.153Z,19.20
2024-05-09T10:07:33.111Z,19.20
2024-05-09T10:10:31.990Z,19.20
2024-05-09T10:13:34.133Z,19.10
2024-05-09T10:16:25.880Z,18.90
2024-05-09T10:19:24.241Z,18.60
2024-05-09T10:22:13.371Z,18.50
2024-05-09T10:25:05.519Z,18.30
2024-05-09T10:27:58.526Z,18.10
2024-05-09T10:30:48.992Z,18.00
2024-05-09T10:33:41.134Z,17.90
2024-05-09T10:36:29.498Z,17.70
2024-05-09T10:39:19.739Z,17.70
2024-05-09T10:42:10.856Z,17.80
2024-05-09T10:45:02.003Z,18.00
2024-05-09T10:47:52.806Z,18.20
2024-05-09T10:50:43.967Z,18.20
2024-05-09T10:53:30.768Z,18.10
2024-05-09T10:56:20.133Z,18.20
2024-05-09T10:59:06.621Z,18.30
2024-05-09T11:01:56.605Z,18.30
2024-05-09T11:04:46.020Z,18.30
2024-05-09T11:07:35.495Z,18.30
2024-05-09T11:10:27.795Z,18.30
2024-05-09T11:13:33.544Z,18.20
2024-05-09T11:16:21.820Z,18.10
2024-05-09T11:19:19.009Z,18.00
2024-05-09T11:22:09.373Z,18.00
2024-05-09T11:24:58.862Z,18.10
2024-05-09T11:27:45.867Z,18.20
2024-05-09T11:30:35.642Z,18.20
2024-05-09T11:33:22.768Z,18.40
2024-05-09T11:36:12.346Z,18.40
2024-05-09T11:39:01.249Z,18.40
2024-05-09T11:41:50.376Z,18.60
2024-05-09T11:44:39.509Z,18.70
2024-05-09T11:47:26.864Z,18.80
2024-05-09T11:50:26.426Z,18.80
2024-05-09T11:53:17.185Z,18.90
2024-05-09T11:56:12.010Z,19.00
2024-05-09T11:58:58.536Z,19.00
2024-05-09T12:01:47.623Z,18.90
2024-05-09T12:04:34.176Z,18.90
2024-05-09T12:07:24.416Z,19.00
2024-05-09T12:10:16.601Z,19.20
2024-05-09T12:13:11.728Z,19.40
2024-05-09T12:15:58.701Z,19.50
2024-05-09T12:18:48.154Z,19.50
2024-05-09T12:21:34.889Z,19.40
2024-05-09T12:24:25.354Z,19.40
2024-05-09T12:27:12.257Z,19.50
2024-05-09T12:30:04.625Z,19.60
2024-05-09T12:32:53.934Z,19.60
2024-05-09T12:35:46.424Z,19.70
2024-05-09T12:38:33.715Z,19.70
2024-05-09T12:41:23.242Z,19.80
2024-05-09T12:44:09.647Z,19.90
2024-05-09T12:47:01.601Z,19.90
2024-05-09T12:49:48.394Z,19.80
2024-05-09T12:52:37.632Z,19.80
2024-05-09T12:55:24.342Z,19.90
2024-05-09T12:58:14.152Z,20.00
2024-05-09T13:01:01.113Z,20.00
2024-05-09T13:03:53.279Z,19.90
2024-05-09T13:06:40.029Z,19.90
2024-05-09T13:09:29.047Z,19.80
2024-05-09T13:12:15.504Z,20.00
2024-05-09T13:15:04.936Z,20.10
2024-05-09T13:17:51.697Z,20.10
2024-05-09T13:20:43.459Z,20.20
2024-05-09T13:23:29.843Z,20.30
2024-05-09T13:26:19.049Z,20.20
2024-05-09T13:29:05.563Z,20.00
2024-05-09T13:31:54.591Z,19.90
2024-05-09T13:34:44.120Z,20.10
2024-05-09T13:37:33.576Z,20.40
2024-05-09T13:40:31.795Z,20.70
2024-05-09T13:43:22.334Z,20.70
2024-05-09T13:46:11.527Z,20.50
2024-05-09T13:48:58.247Z,20.30
2024-05-09T13:51:47.430Z,20.30
2024-05-09T13:54:37.301Z,20.20
2024-05-09T13:57:26.181Z,20.10
2024-05-09T14:00:27.012Z,20.10
2024-05-09T14:03:22.704Z,20.10
2024-05-09T14:06:13.075Z,19.90
2024-05-09T14:09:05.251Z,19.80
2024-05-09T14:11:54.344Z,20.00
2024-05-09T14:14:43.583Z,20.20
2024-05-09T14:17:30.466Z,20.40
2024-05-09T14:20:28.585Z,20.50
2024-05-09T14:23:18.675Z,20.40
2024-05-09T14:26:28.169Z,20.30
2024-05-09T14:29:18.474Z,20.20
2024-05-09T14:32:07.930Z,20.10
2024-05-09T14:34:54.552Z,20.00
2024-05-09T14:37:43.923Z,20.00
2024-05-09T14:40:40.499Z,20.00
2024-05-09T14:43:32.671Z,20.00
2024-05-09T14:46:23.145Z,19.90
2024-05-09T14:49:12.753Z,19.90
2024-05-09T14:51:59.890Z,20.00
2024-05-09T14:54:59.505Z,20.20
2024-05-09T14:57:47.325Z,20.30
2024-05-09T15:00:39.461Z,20.40
2024-05-09T15:03:36.697Z,20.50
2024-05-09T15:06:23.264Z,20.60
2024-05-09T15:09:12.632Z,20.50
2024-05-09T15:11:59.443Z,20.50
2024-05-09T15:14:48.437Z,20.50
2024-05-09T15:17:35.095Z,20.50
2024-05-09T15:20:33.957Z,20.30
2024-05-09T15:23:22.445Z,20.20
2024-05-09T15:26:11.516Z,20.10
2024-05-09T15:29:00.724Z,20.10
2024-05-09T15:31:47.309Z,19.90
2024-05-09T15:34:36.509Z,19.80
2024-05-09T15:37:25.684Z,19.70
2024-05-09T15:40:18.923Z,19.70
2024-05-09T15:43:13.273Z,19.70
2024-05-09T15:46:02.807Z,19.80
2024-05-09T15:48:52.153Z,20.00
2024-05-09T15:51:38.717Z,20.10
2024-05-09T15:54:30.745Z,20.20
2024-05-09T15:57:18.207Z,20.30
2024-05-09T16:00:15.126Z,20.50
2024-05-09T16:03:09.004Z,20.60
2024-05-09T16:05:58.934Z,20.60
2024-05-09T16:08:45.323Z,20.70
2024-05-09T16:11:39.247Z,20.70
2024-05-09T16:14:25.958Z,20.60
2024-05-09T16:17:15.079Z,20.40
2024-05-09T16:20:06.993Z,20.30
2024-05-09T16:22:58.165Z,20.20
2024-05-09T16:25:48.504Z,20.30
2024-05-09T16:28:41.185Z,20.20
2024-05-09T16:31:28.325Z,20.10
2024-05-09T16:34:18.147Z,20.10
2024-05-09T16:37:06.656Z,20.20
2024-05-09T16:39:56.221Z,20.10
2024-05-09T16:42:42.631Z,20.00
2024-05-09T16:45:35.000Z,19.90
2024-05-09T16:48:22.062Z,19.90
2024-05-09T16:51:11.629Z,19.90
2024-05-09T16:53:58.298Z,20.00
2024-05-09T16:56:47.528Z,19.90
2024-05-09T16:59:34.580Z,19.90
2024-05-09T17:02:27.134Z,19.80
2024-05-09T17:05:17.140Z,19.80
2024-05-09T17:08:06.734Z,19.60
2024-05-09T17:10:53.432Z,19.50
2024-05-09T17:13:45.241Z,19.40
2024-05-09T17:16:35.669Z,19.30
2024-05-09T17:19:27.712Z,19.20
2024-05-09T17:22:15.219Z,19.00
2024-05-09T17:25:05.721Z,19.00
2024-05-09T17:27:52.470Z,18.90
2024-05-09T17:30:42.616Z,18.80
2024-05-09T17:33:29.516Z,18.70
2024-05-09T17:36:21.607Z,18.60
2024-05-09T17:39:08.539Z,18.50
2024-05-09T17:41:57.679Z,18.40
2024-05-09T17:44:44.258Z,18.40
2024-05-09T17:47:33.905Z,18.30
2024-05-09T17:50:27.442Z,18.20
2024-05-09T17:53:25.552Z,18.10
2024-05-09T17:56:11.654Z,18.00
2024-05-09T17:59:01.620Z,17.90
2024-05-09T18:01:50.073Z,17.70
2024-05-09T18:04:39.366Z,17.70
2024-05-09T18:07:26.019Z,17.60
2024-05-09T18:10:25.434Z,17.50
2024-05-09T18:13:16.668Z,17.50
2024-05-09T18:16:06.540Z,17.30
2024-05-09T18:18:53.377Z,17.20
2024-05-09T18:21:43.035Z,17.10
2024-05-09T18:24:29.779Z,17.10
2024-05-09T18:27:22.289Z,17.00
2024-05-09T18:30:23.855Z,17.00
2024-05-09T18:33:18.532Z,16.90
2024-05-09T18:36:05.732Z,16.90
2024-05-09T18:38:54.954Z,16.70
2024-05-09T18:44:34.131Z,16.60
2024-05-09T18:47:20.742Z,16.50
2024-05-09T18:50:14.944Z,16.30
2024-05-09T18:53:12.369Z,16.30
2024-05-09T18:55:59.686Z,16.20
2024-05-09T18:59:08.706Z,16.10
2024-05-09T19:01:58.684Z,16.00
2024-05-09T19:04:48.512Z,15.90
2024-05-09T19:07:35.634Z,15.80
2024-05-09T19:10:28.858Z,15.60
2024-05-09T19:13:20.202Z,15.50
2024-05-09T19:16:10.276Z,15.40
2024-05-09T19:18:59.461Z,15.30
2024-05-09T19:21:48.983Z,15.20
2024-05-09T19:24:35.633Z,15.10
2024-05-09T19:27:24.642Z,15.00
2024-05-09T19:30:17.918Z,14.90
2024-05-09T19:33:15.340Z,14.80
2024-05-09T19:36:05.851Z,14.70
2024-05-09T19:38:55.247Z,14.60
2024-05-09T19:41:41.680Z,14.50
2024-05-09T19:44:31.050Z,14.40
2024-05-09T19:47:17.774Z,14.30
2024-05-09T19:50:11.150Z,14.20
2024-05-09T19:53:05.973Z,14.10
2024-05-09T19:55:55.863Z,14.10
2024-05-09T19:58:42.642Z,14.00
2024-05-09T20:01:31.864Z,13.90
2024-05-09T20:04:20.940Z,13.80
2024-05-09T20:07:08.020Z,13.70
2024-05-09T20:10:00.188Z,13.70
2024-05-09T20:12:49.628Z,13.60
2024-05-09T20:15:37.174Z,13.50
2024-05-09T20:18:26.474Z,13.40
2024-05-09T20:21:12.837Z,13.20
2024-05-09T20:24:02.185Z,13.30
2024-05-09T20:26:51.285Z,13.20
2024-05-09T20:29:40.284Z,13.10
2024-05-09T20:32:30.175Z,13.00
2024-05-09T20:35:19.266Z,13.00
2024-05-09T20:38:06.040Z,12.90
2024-05-09T20:40:55.817Z,12.80
2024-05-09T20:43:47.427Z,12.80
2024-05-09T20:46:33.922Z,12.70
2024-05-09T20:52:10.101Z,12.60
2024-05-09T20:54:59.604Z,12.50
2024-05-09T20:57:46.206Z,12.40
2024-05-09T21:00:41.918Z,12.40
2024-05-09T21:03:32.759Z,12.30
2024-05-09T21:06:21.949Z,12.20
2024-05-09T21:09:08.283Z,12.20
2024-05-09T21:11:57.852Z,12.10
2024-05-09T21:14:44.304Z,12.00
2024-05-09T21:17:35.885Z,12.00
2024-05-09T21:20:29.106Z,11.90
2024-05-09T21:26:08.099Z,11.80
2024-05-09T21:28:57.140Z,11.70
2024-05-09T21:31:43.591Z,11.70
2024-05-09T21:34:35.862Z,11.60
2024-05-09T21:37:25.233Z,11.60
2024-05-09T21:40:16.991Z,11.50
2024-05-09T21:43:13.344Z,11.50
2024-05-09T21:46:00.251Z,11.40
2024-05-09T21:48:49.710Z,11.40
2024-05-09T21:51:38.798Z,11.30
2024-05-09T21:54:27.539Z,11.30
2024-05-09T22:00:11.535Z,11.20
2024-05-09T22:03:00.574Z,11.10
2024-05-09T22:05:49.955Z,11.00
2024-05-09T22:11:28.566Z,11.00
2024-05-09T22:14:15.066Z,11.00
2024-05-09T22:17:04.611Z,10.90
2024-05-09T22:19:51.141Z,10.90
2024-05-09T22:22:41.634Z,10.80
2024-05-09T23:19:23.529Z,10.30
2024-05-09T23:22:09.948Z,10.10
2024-05-09T23:24:59.491Z,10.00
2024-05-09T23:27:46.206Z,9.90
2024-05-09T23:30:38.933Z,9.90
2024-05-09T23:33:30.266Z,9.80
2024-05-09T23:36:19.377Z,9.80
